Guenther Schulte — VRGK8 — position and weather

sailwx.info

Track history (hours):
 
Tides and Currents Weather Stations Pressure Air Temp Water Temp Dewpoint Dewpoint Depression Visibility Wind Speed Wind Dir Waves Ship Positions

Guenther Schulte

Last reported at 2014-Nov-26 08:33 UTC. Time now 2014-Nov-26 08:59 UTC.
Position N 37°45' W 122°20'.

Length 231 m; draft 10.8 m.

Type: Ship (hazmat cat C). MMSI: 477728800.

Date/timePositionNaut miles runAvg speedWind from/ knotsBaromVisibWave heightAir tempDewpointWater temp
2014-Nov-26 08:33N 37°45' W 122°20'0 0.0
2014-Nov-26 07:33N 37°45' W 122°20'0 0.0
2014-Nov-26 06:33N 37°45' W 122°20'0 0.1
2014-Nov-26 05:33N 37°45' W 122°20'0 0.2
2014-Nov-26 04:30N 37°45' W 122°21'0 0.1
2014-Nov-26 03:33N 37°45' W 122°21'0 0.0
2014-Nov-26 02:33N 37°45' W 122°21'0 0.0
2014-Nov-26 01:33N 37°45' W 122°21'0 0.0
2014-Nov-26 00:33N 37°45' W 122°21'0 0.0
2014-Nov-25 23:33N 37°45' W 122°21'0 0.1
2014-Nov-25 22:33N 37°45' W 122°21'0 0.2
2014-Nov-25 21:33N 37°45' W 122°20'0 0.0
2014-Nov-25 20:33N 37°45' W 122°20'0 0.0
2014-Nov-25 19:33N 37°45' W 122°20'0 0.0
2014-Nov-25 18:33N 37°45' W 122°20'0 0.0
2014-Nov-25 17:33N 37°45' W 122°20'0 0.0
2014-Nov-25 16:33N 37°45' W 122°20'0 0.2
2014-Nov-25 15:33N 37°45' W 122°21'0 0.1
2014-Nov-25 14:33N 37°45' W 122°21'0 0.0
2014-Nov-25 13:30N 37°45' W 122°21'0 0.0
2014-Nov-25 12:33N 37°45' W 122°21'0 0.2
2014-Nov-25 11:33N 37°45' W 122°21'0 0.0
2014-Nov-25 10:33N 37°45' W 122°20'0 0.0
2014-Nov-25 09:33N 37°45' W 122°20'0 0.0
2014-Nov-25 08:33N 37°45' W 122°20'0 0.0
2014-Nov-25 07:33N 37°45' W 122°20'0 0.1
2014-Nov-25 06:33N 37°45' W 122°20'0 0.0
2014-Nov-25 05:33N 37°45' W 122°20'0 0.2
2014-Nov-25 04:33N 37°45' W 122°21'0 0.1
2014-Nov-25 03:33N 37°45' W 122°21'0 0.0
2014-Nov-25 02:33N 37°45' W 122°21'0 0.0
2014-Nov-25 01:33N 37°45' W 122°21'0 0.0
2014-Nov-25 00:30N 37°45' W 122°21'0 0.0
2014-Nov-24 23:33N 37°45' W 122°21'0 0.0
2014-Nov-24 22:33N 37°45' W 122°21'0 0.1
2014-Nov-24 21:33N 37°45' W 122°21'0 0.2
2014-Nov-24 20:33N 37°45' W 122°20'0 0.0
2014-Nov-24 19:33N 37°45' W 122°20'0 0.0
2014-Nov-24 18:33N 37°45' W 122°20'6 6.4
2014-Nov-24 17:33N 37°49' W 122°26'1312.8
2014-Nov-24 16:34N 37°44' W 122°41'1110.9
2014-Nov-24 15:33N 37°37' W 122°52'1010.4
2014-Nov-24 14:33N 37°32' W 123°03'1110.6
2014-Nov-24 13:33N 37°26' W 123°14'1110.5
2014-Nov-24 12:30N 37°18' W 123°24'1010.8
2014-Nov-24 11:33N 37°11' W 123°33'1110.9
2014-Nov-24 10:32N 37°03' W 123°43'1111.1
2014-Nov-24 09:33N 36°55' W 123°52'1111.2
2014-Nov-24 08:33N 36°46' W 124°01'1111.1
2014-Nov-24 07:34N 36°38' W 124°10'1611.2
2014-Nov-24 06:06N 36°26' W 124°24'9 9.5
2014-Nov-24 05:12N 36°20' W 124°31'6 9.5
2014-Nov-24 04:33N 36°15' W 124°36'1110.9
2014-Nov-24 03:31N 36°07' W 124°46'1110.9
2014-Nov-24 02:32N 35°60' W 124°55'1111.5
2014-Nov-24 01:34N 35°51' W 125°05'2710.9
2014-Nov-23 23:07N 35°31' W 125°26'2311.1
2014-Nov-23 21:03N 35°14' W 125°45'911.3
2014-Nov-23 20:13N 35°09' W 125°54'811.4
2014-Nov-23 19:33N 35°04' W 126°02'  
Track history (hours):
 
Tides and Currents Weather Stations Pressure Air Temp Water Temp Dewpoint Dewpoint Depression Visibility Wind Speed Wind Dir Waves Ship Positions

Guenther Schulte

Last reported at 2014-Nov-26 08:33 UTC. Time now 2014-Nov-26 08:59 UTC.
Position N 37°45' W 122°20'.

Length 231 m; draft 10.8 m.

Type: Ship (hazmat cat C). MMSI: 477728800.

Date/timePositionNaut miles runAvg speedWind from/ knotsBaromVisibWave heightAir tempDewpointWater temp
2014-Nov-26 08:33N 37°45' W 122°20'0 0.0
2014-Nov-26 07:33N 37°45' W 122°20'0 0.0
2014-Nov-26 06:33N 37°45' W 122°20'0 0.1
2014-Nov-26 05:33N 37°45' W 122°20'0 0.2
2014-Nov-26 04:30N 37°45' W 122°21'0 0.1
2014-Nov-26 03:33N 37°45' W 122°21'0 0.0
2014-Nov-26 02:33N 37°45' W 122°21'0 0.0
2014-Nov-26 01:33N 37°45' W 122°21'0 0.0
2014-Nov-26 00:33N 37°45' W 122°21'0 0.0
2014-Nov-25 23:33N 37°45' W 122°21'0 0.1
2014-Nov-25 22:33N 37°45' W 122°21'0 0.2
2014-Nov-25 21:33N 37°45' W 122°20'0 0.0
2014-Nov-25 20:33N 37°45' W 122°20'0 0.0
2014-Nov-25 19:33N 37°45' W 122°20'0 0.0
2014-Nov-25 18:33N 37°45' W 122°20'0 0.0
2014-Nov-25 17:33N 37°45' W 122°20'0 0.0
2014-Nov-25 16:33N 37°45' W 122°20'0 0.2
2014-Nov-25 15:33N 37°45' W 122°21'0 0.1
2014-Nov-25 14:33N 37°45' W 122°21'0 0.0
2014-Nov-25 13:30N 37°45' W 122°21'0 0.0
2014-Nov-25 12:33N 37°45' W 122°21'0 0.2
2014-Nov-25 11:33N 37°45' W 122°21'0 0.0
2014-Nov-25 10:33N 37°45' W 122°20'0 0.0
2014-Nov-25 09:33N 37°45' W 122°20'0 0.0
2014-Nov-25 08:33N 37°45' W 122°20'0 0.0
2014-Nov-25 07:33N 37°45' W 122°20'0 0.1
2014-Nov-25 06:33N 37°45' W 122°20'0 0.0
2014-Nov-25 05:33N 37°45' W 122°20'0 0.2
2014-Nov-25 04:33N 37°45' W 122°21'0 0.1
2014-Nov-25 03:33N 37°45' W 122°21'0 0.0
2014-Nov-25 02:33N 37°45' W 122°21'0 0.0
2014-Nov-25 01:33N 37°45' W 122°21'0 0.0
2014-Nov-25 00:30N 37°45' W 122°21'0 0.0
2014-Nov-24 23:33N 37°45' W 122°21'0 0.0
2014-Nov-24 22:33N 37°45' W 122°21'0 0.1
2014-Nov-24 21:33N 37°45' W 122°21'0 0.2
2014-Nov-24 20:33N 37°45' W 122°20'0 0.0
2014-Nov-24 19:33N 37°45' W 122°20'0 0.0
2014-Nov-24 18:33N 37°45' W 122°20'6 6.4
2014-Nov-24 17:33N 37°49' W 122°26'1312.8
2014-Nov-24 16:34N 37°44' W 122°41'1110.9
2014-Nov-24 15:33N 37°37' W 122°52'1010.4
2014-Nov-24 14:33N 37°32' W 123°03'1110.6
2014-Nov-24 13:33N 37°26' W 123°14'1110.5
2014-Nov-24 12:30N 37°18' W 123°24'1010.8
2014-Nov-24 11:33N 37°11' W 123°33'1110.9
2014-Nov-24 10:32N 37°03' W 123°43'1111.1
2014-Nov-24 09:33N 36°55' W 123°52'1111.2
2014-Nov-24 08:33N 36°46' W 124°01'1111.1
2014-Nov-24 07:34N 36°38' W 124°10'1611.2
2014-Nov-24 06:06N 36°26' W 124°24'9 9.5
2014-Nov-24 05:12N 36°20' W 124°31'6 9.5
2014-Nov-24 04:33N 36°15' W 124°36'1110.9
2014-Nov-24 03:31N 36°07' W 124°46'1110.9
2014-Nov-24 02:32N 35°60' W 124°55'1111.5
2014-Nov-24 01:34N 35°51' W 125°05'2710.9
2014-Nov-23 23:07N 35°31' W 125°26'2311.1
2014-Nov-23 21:03N 35°14' W 125°45'911.3
2014-Nov-23 20:13N 35°09' W 125°54'811.4
2014-Nov-23 19:33N 35°04' W 126°02'  

Dump ship's entire track history